Time;durP1;ratioP1;P1;durP2;ratioP2;P2;SDS_P1;SDS_P2;PMS_P1;PMS_P2;Temp;Humidity;BMP_temperature;BMP_pressure;BME280_temperature;BME280_humidity;BME280_pressure;Samples;Min_cycle;Max_cycle;Signal;HPM_P1;HPM_P2
2022/10/23 00:00:04;;;;;;;;;;;10.30;99.90;;;;;;5103897;28;20172;-68
2022/10/23 00:02:30;;;;;;;;;;;10.30;99.90;;;;;;5103892;28;19991;-68
2022/10/23 00:04:57;;;;;;;;;;;10.30;99.90;;;;;;5103361;28;19987;-69
2022/10/23 00:07:24;;;;;;;;;;;10.30;99.90;;;;;;5086648;28;19920;-69
2022/10/23 00:09:50;;;;;;;;;;;10.20;99.90;;;;;;5097752;28;20000;-68
2022/10/23 00:12:17;;;;;;;;;;;10.20;99.90;;;;;;5083193;28;20198;-68
2022/10/23 00:14:43;;;;;;;;;;;10.20;99.90;;;;;;5083014;28;19929;-72
2022/10/23 00:17:11;;;;;;;;;;;10.20;99.90;;;;;;5083328;28;19967;-68
2022/10/23 00:19:38;;;;;;;;;;;10.20;99.90;;;;;;5100179;28;19951;-68
2022/10/23 00:22:05;;;;;;;;;;;10.20;99.90;;;;;;5101711;28;19920;-68
2022/10/23 00:24:31;;;;;;;;;;;10.20;99.90;;;;;;5103375;28;19988;-68
2022/10/23 00:26:58;;;;;;;;;;;10.10;99.90;;;;;;5103750;28;19955;-69
2022/10/23 00:29:26;;;;;;;;;;;10.10;99.90;;;;;;5100130;28;20148;-68
2022/10/23 00:31:53;;;;;;;;;;;10.10;99.90;;;;;;5083413;28;19920;-67
2022/10/23 00:34:21;;;;;;;;;;;10.10;99.90;;;;;;5083045;28;19935;-69
2022/10/23 00:36:48;;;;;;;;;;;10.10;99.90;;;;;;5082646;28;19920;-70
2022/10/23 00:39:14;;;;;;;;;;;10.10;99.90;;;;;;5083463;28;20107;-69
2022/10/23 00:41:41;;;;;;;;;;;10.10;99.90;;;;;;5083203;28;19983;-68
2022/10/23 00:44:09;;;;;;;;;;;10.10;99.90;;;;;;5087145;28;20245;-69
2022/10/23 00:46:36;;;;;;;;;;;10.10;99.90;;;;;;5102830;28;19920;-70
2022/10/23 00:49:04;;;;;;;;;;;10.00;99.90;;;;;;5102936;28;19983;-68
2022/10/23 00:51:34;;;;;;;;;;;10.00;99.90;;;;;;5103344;28;19926;-69
2022/10/23 00:54:02;;;;;;;;;;;9.90;99.90;;;;;;5085974;28;19921;-68
2022/10/23 00:56:30;;;;;;;;;;;9.90;99.90;;;;;;5094422;28;19943;-68
2022/10/23 00:58:57;;;;;;;;;;;9.90;99.90;;;;;;5102415;28;20207;-68
2022/10/23 01:01:23;;;;;;;;;;;9.90;99.90;;;;;;5105866;28;20009;-68
2022/10/23 01:03:51;;;;;;;;;;;9.90;99.90;;;;;;5106723;28;20111;-68
2022/10/23 01:06:21;;;;;;;;;;;9.90;99.90;;;;;;5106605;28;19926;-68
2022/10/23 01:08:52;;;;;;;;;;;9.80;99.90;;;;;;5107198;28;19987;-68
2022/10/23 01:11:22;;;;;;;;;;;9.80;99.90;;;;;;5106190;28;19920;-69
2022/10/23 01:13:51;;;;;;;;;;;9.80;99.90;;;;;;5086540;28;19920;-68
2022/10/23 01:16:20;;;;;;;;;;;9.80;99.90;;;;;;5086575;28;19920;-68
2022/10/23 01:18:51;;;;;;;;;;;9.80;99.90;;;;;;5086694;28;19927;-69
2022/10/23 01:21:21;;;;;;;;;;;9.80;99.90;;;;;;5086690;28;19926;-68
2022/10/23 01:24:00;;;;;;;;;;;9.90;99.90;;;;;;5086250;28;20245;-68
2022/10/23 01:26:33;;;;;;;;;;;9.90;99.90;;;;;;5097603;28;19920;-68
2022/10/23 01:29:03;;;;;;;;;;;9.90;99.90;;;;;;5106765;28;19920;-68
2022/10/23 01:31:33;;;;;;;;;;;9.90;99.90;;;;;;5106805;28;19920;-69
2022/10/23 01:34:03;;;;;;;;;;;9.90;99.90;;;;;;5106628;28;19926;-69
2022/10/23 01:36:32;;;;;;;;;;;9.90;99.90;;;;;;5106081;28;19920;-69
2022/10/23 01:38:59;;;;;;;;;;;9.90;99.90;;;;;;5104903;28;19920;-68
2022/10/23 01:41:29;;;;;;;;;;;9.90;99.90;;;;;;5086161;28;19974;-69
2022/10/23 01:43:58;;;;;;;;;;;9.90;99.90;;;;;;5086012;28;19920;-69
2022/10/23 01:46:27;;;;;;;;;;;9.80;99.90;;;;;;5085918;28;19942;-68
2022/10/23 01:48:55;;;;;;;;;;;9.80;99.90;;;;;;5085906;28;19983;-68
2022/10/23 01:51:24;;;;;;;;;;;9.80;99.90;;;;;;5085757;28;19921;-68
2022/10/23 01:53:52;;;;;;;;;;;9.80;99.90;;;;;;5092709;28;19920;-68
2022/10/23 01:56:22;;;;;;;;;;;9.80;99.90;;;;;;5097153;28;19920;-69
2022/10/23 01:58:50;;;;;;;;;;;9.70;99.90;;;;;;5106090;28;19920;-68
2022/10/23 02:01:19;;;;;;;;;;;9.70;99.90;;;;;;5106165;28;19983;-68
2022/10/23 02:03:47;;;;;;;;;;;9.80;99.90;;;;;;5101229;28;20138;-68
2022/10/23 02:06:14;;;;;;;;;;;9.70;99.90;;;;;;5105400;28;19920;-70
2022/10/23 02:08:41;;;;;;;;;;;9.70;99.90;;;;;;5105493;28;19920;-68
2022/10/23 02:11:10;;;;;;;;;;;9.70;99.90;;;;;;5105240;28;19991;-68
2022/10/23 02:13:39;;;;;;;;;;;9.70;99.90;;;;;;5105655;28;19920;-70
2022/10/23 02:16:10;;;;;;;;;;;9.70;99.90;;;;;;5086290;28;19931;-68
2022/10/23 02:18:40;;;;;;;;;;;9.70;99.90;;;;;;5085388;28;19920;-69
2022/10/23 02:21:09;;;;;;;;;;;9.60;99.90;;;;;;5085307;28;19996;-69
2022/10/23 02:23:38;;;;;;;;;;;9.60;99.90;;;;;;5085610;28;19927;-68
2022/10/23 02:26:07;;;;;;;;;;;9.60;99.90;;;;;;5084730;28;19926;-69
2022/10/23 02:28:38;;;;;;;;;;;9.60;99.90;;;;;;5087783;28;19920;-68
2022/10/23 02:31:05;;;;;;;;;;;9.60;99.90;;;;;;5084979;28;20011;-68
2022/10/23 02:33:33;;;;;;;;;;;9.60;99.90;;;;;;5085176;28;19928;-68
2022/10/23 02:35:59;;;;;;;;;;;9.60;99.90;;;;;;5085201;28;19943;-68
2022/10/23 02:38:29;;;;;;;;;;;9.50;99.90;;;;;;5084849;28;20212;-68
2022/10/23 02:40:57;;;;;;;;;;;9.50;99.90;;;;;;5084782;28;19927;-68
2022/10/23 02:43:27;;;;;;;;;;;9.50;99.90;;;;;;5085086;28;19920;-68
2022/10/23 02:45:58;;;;;;;;;;;9.50;99.90;;;;;;5084309;28;19926;-69
2022/10/23 02:48:27;;;;;;;;;;;9.50;99.90;;;;;;5084856;28;19920;-68
2022/10/23 02:50:56;;;;;;;;;;;9.50;99.90;;;;;;5084747;28;20123;-69
2022/10/23 02:53:27;;;;;;;;;;;9.50;99.90;;;;;;5093980;28;19920;-68
2022/10/23 02:56:00;;;;;;;;;;;9.40;99.90;;;;;;5093288;28;19920;-68
2022/10/23 02:58:28;;;;;;;;;;;9.50;99.90;;;;;;5084400;28;20200;-68
2022/10/23 03:00:57;;;;;;;;;;;9.40;99.90;;;;;;5084514;28;19920;-68
2022/10/23 03:03:27;;;;;;;;;;;9.40;99.90;;;;;;5084750;28;19987;-68
2022/10/23 03:05:54;;;;;;;;;;;9.40;99.90;;;;;;5084199;28;19966;-70
2022/10/23 03:08:20;;;;;;;;;;;9.30;99.90;;;;;;5084406;28;19926;-68
2022/10/23 03:10:47;;;;;;;;;;;9.30;99.90;;;;;;5084355;28;20000;-69
2022/10/23 03:13:15;;;;;;;;;;;9.30;99.90;;;;;;5084222;28;19955;-68
2022/10/23 03:15:41;;;;;;;;;;;9.30;99.90;;;;;;5084101;28;19986;-68
2022/10/23 03:18:08;;;;;;;;;;;9.20;99.90;;;;;;5084215;28;19987;-70
2022/10/23 03:20:35;;;;;;;;;;;9.20;99.90;;;;;;5084068;28;19920;-69
2022/10/23 03:23:01;;;;;;;;;;;9.20;99.90;;;;;;5083283;28;19987;-68
2022/10/23 03:25:28;;;;;;;;;;;9.20;99.90;;;;;;5101671;28;19926;-68
2022/10/23 03:27:55;;;;;;;;;;;9.10;99.90;;;;;;5104414;28;19924;-69
2022/10/23 03:30:23;;;;;;;;;;;9.10;99.90;;;;;;5103994;28;20227;-68
2022/10/23 03:32:49;;;;;;;;;;;9.10;99.90;;;;;;5104316;28;19920;-68
2022/10/23 03:35:16;;;;;;;;;;;9.10;99.90;;;;;;5104177;28;19926;-68
2022/10/23 03:37:42;;;;;;;;;;;9.10;99.90;;;;;;5103455;28;20093;-68
2022/10/23 03:40:10;;;;;;;;;;;9.10;99.90;;;;;;5104039;28;19996;-68
2022/10/23 03:42:36;;;;;;;;;;;9.10;99.90;;;;;;5103872;28;19926;-68
2022/10/23 03:45:03;;;;;;;;;;;9.10;99.90;;;;;;5103579;28;19920;-69
2022/10/23 03:47:33;;;;;;;;;;;9.10;99.90;;;;;;5103975;28;19920;-68
2022/10/23 03:50:00;;;;;;;;;;;9.10;99.90;;;;;;5104127;28;20218;-68
2022/10/23 03:52:27;;;;;;;;;;;9.00;99.90;;;;;;5094394;28;20239;-68
2022/10/23 03:54:53;;;;;;;;;;;9.00;99.90;;;;;;5092651;28;19921;-69
2022/10/23 03:57:20;;;;;;;;;;;9.00;99.90;;;;;;5096800;28;19982;-69
2022/10/23 03:59:46;;;;;;;;;;;9.00;99.90;;;;;;5103914;28;19943;-69
2022/10/23 04:02:13;;;;;;;;;;;9.00;99.90;;;;;;5103719;28;19958;-69
2022/10/23 04:04:41;;;;;;;;;;;8.90;99.90;;;;;;5103294;28;19991;-68
2022/10/23 04:07:08;;;;;;;;;;;8.90;99.90;;;;;;5090046;28;19926;-69
2022/10/23 04:09:34;;;;;;;;;;;8.90;99.90;;;;;;5103802;28;19986;-69
2022/10/23 04:12:01;;;;;;;;;;;8.90;99.90;;;;;;5103407;28;19927;-71
2022/10/23 04:14:27;;;;;;;;;;;8.90;99.90;;;;;;5103554;28;19920;-71
2022/10/23 04:16:54;;;;;;;;;;;8.80;99.90;;;;;;5103218;28;19927;-71
2022/10/23 04:19:21;;;;;;;;;;;8.80;99.90;;;;;;5101795;28;20115;-71
2022/10/23 04:21:48;;;;;;;;;;;8.80;99.90;;;;;;5102168;28;19935;-71
2022/10/23 04:24:15;;;;;;;;;;;8.80;99.90;;;;;;5083239;28;19991;-72
2022/10/23 04:26:42;;;;;;;;;;;8.90;99.90;;;;;;5094166;28;20119;-71
2022/10/23 04:29:08;;;;;;;;;;;8.80;99.90;;;;;;5103159;28;19996;-71
2022/10/23 04:31:35;;;;;;;;;;;8.80;99.90;;;;;;5103294;28;19990;-71
2022/10/23 04:34:02;;;;;;;;;;;8.80;99.90;;;;;;5099368;28;20238;-72
2022/10/23 04:36:28;;;;;;;;;;;8.80;99.90;;;;;;5087203;28;19927;-71
2022/10/23 04:38:56;;;;;;;;;;;8.80;99.90;;;;;;5088563;28;20171;-71
2022/10/23 04:41:23;;;;;;;;;;;8.80;99.90;;;;;;5086899;28;19927;-71
2022/10/23 04:43:49;;;;;;;;;;;8.80;99.90;;;;;;5087198;28;19920;-71
2022/10/23 04:46:16;;;;;;;;;;;8.70;99.90;;;;;;5086868;28;19920;-72
2022/10/23 04:48:43;;;;;;;;;;;8.80;99.90;;;;;;5086755;28;19921;-71
2022/10/23 04:51:09;;;;;;;;;;;8.70;99.90;;;;;;5086761;28;19927;-71
2022/10/23 04:53:37;;;;;;;;;;;8.80;99.90;;;;;;5087695;28;19921;-72
2022/10/23 04:56:06;;;;;;;;;;;8.70;99.90;;;;;;5097226;28;19920;-71
2022/10/23 04:58:32;;;;;;;;;;;8.80;99.90;;;;;;5107264;28;19987;-71
2022/10/23 05:00:59;;;;;;;;;;;8.80;99.90;;;;;;5106457;28;20262;-71
2022/10/23 05:03:25;;;;;;;;;;;8.80;99.90;;;;;;5106912;28;19920;-71
2022/10/23 05:05:53;;;;;;;;;;;8.70;99.90;;;;;;5106719;28;19987;-72
2022/10/23 05:08:19;;;;;;;;;;;8.70;99.90;;;;;;5106312;28;19920;-71
2022/10/23 05:10:47;;;;;;;;;;;8.70;99.90;;;;;;5106486;28;19991;-71
2022/10/23 05:13:15;;;;;;;;;;;8.70;99.90;;;;;;5106971;28;20199;-71
2022/10/23 05:15:42;;;;;;;;;;;8.70;99.90;;;;;;5096285;28;20093;-71
2022/10/23 05:18:11;;;;;;;;;;;8.70;99.90;;;;;;5086531;28;20105;-72
2022/10/23 05:20:39;;;;;;;;;;;8.70;99.90;;;;;;5097373;28;19957;-71
2022/10/23 05:23:06;;;;;;;;;;;8.70;99.90;;;;;;5095323;28;19936;-71
2022/10/23 05:25:33;;;;;;;;;;;8.70;99.90;;;;;;5095240;28;20111;-72
2022/10/23 05:27:59;;;;;;;;;;;8.60;99.90;;;;;;5097091;28;19927;-72
2022/10/23 05:30:27;;;;;;;;;;;8.60;99.90;;;;;;5096621;28;20186;-72
2022/10/23 05:32:54;;;;;;;;;;;8.60;99.90;;;;;;5096728;28;19987;-72
2022/10/23 05:35:22;;;;;;;;;;;8.60;99.90;;;;;;5094386;28;19953;-72
2022/10/23 05:37:49;;;;;;;;;;;8.60;99.90;;;;;;5102654;28;19926;-72
2022/10/23 05:40:16;;;;;;;;;;;8.60;99.90;;;;;;5106282;28;19926;-72
2022/10/23 05:42:43;;;;;;;;;;;8.60;99.90;;;;;;5105872;28;19920;-71
2022/10/23 05:45:10;;;;;;;;;;;8.60;99.90;;;;;;5105812;28;19920;-72
2022/10/23 05:47:38;;;;;;;;;;;8.50;99.90;;;;;;5105331;28;20119;-71
2022/10/23 05:50:05;;;;;;;;;;;8.50;99.90;;;;;;5106216;28;19920;-71
2022/10/23 05:52:32;;;;;;;;;;;8.60;99.90;;;;;;5099775;28;19920;-72
2022/10/23 05:54:58;;;;;;;;;;;8.60;99.90;;;;;;5094406;28;19920;-71
2022/10/23 05:57:25;;;;;;;;;;;8.50;99.90;;;;;;5098552;28;19920;-72
2022/10/23 05:59:51;;;;;;;;;;;8.50;99.90;;;;;;5106454;28;19928;-72
2022/10/23 06:02:18;;;;;;;;;;;8.50;99.90;;;;;;5106041;28;19919;-72
2022/10/23 06:04:46;;;;;;;;;;;8.50;99.90;;;;;;5105753;28;19934;-72
2022/10/23 06:07:12;;;;;;;;;;;8.50;99.90;;;;;;5105945;28;19927;-72
2022/10/23 06:09:39;;;;;;;;;;;8.50;99.90;;;;;;5105819;28;19920;-71
2022/10/23 06:12:06;;;;;;;;;;;8.40;99.90;;;;;;5093235;28;19925;-71
2022/10/23 06:14:32;;;;;;;;;;;8.40;99.90;;;;;;5088506;28;19975;-71
2022/10/23 06:16:59;;;;;;;;;;;8.50;99.90;;;;;;5094401;28;19940;-71
2022/10/23 06:19:25;;;;;;;;;;;8.50;99.90;;;;;;5105736;28;19983;-72
2022/10/23 06:21:53;;;;;;;;;;;8.50;99.90;;;;;;5105670;28;19926;-71
2022/10/23 06:24:20;;;;;;;;;;;8.50;99.90;;;;;;5105398;28;19920;-71
2022/10/23 06:26:46;;;;;;;;;;;8.50;99.90;;;;;;5087805;28;20263;-71
2022/10/23 06:29:13;;;;;;;;;;;8.50;99.90;;;;;;5085280;28;19984;-72
2022/10/23 06:31:40;;;;;;;;;;;8.50;99.90;;;;;;5084793;28;19927;-72
2022/10/23 06:34:06;;;;;;;;;;;8.60;99.90;;;;;;5084946;28;19920;-72
2022/10/23 06:36:33;;;;;;;;;;;8.60;99.90;;;;;;5087370;28;19926;-72
2022/10/23 06:39:01;;;;;;;;;;;8.60;99.90;;;;;;5105121;28;20208;-72
2022/10/23 06:41:27;;;;;;;;;;;8.70;99.90;;;;;;5105433;28;19928;-72
2022/10/23 06:43:54;;;;;;;;;;;8.70;99.90;;;;;;5105179;28;19983;-72
2022/10/23 06:46:20;;;;;;;;;;;8.80;99.90;;;;;;5096859;28;19920;-72
2022/10/23 06:48:47;;;;;;;;;;;8.80;99.90;;;;;;5084847;28;19928;-72
2022/10/23 06:51:15;;;;;;;;;;;8.80;99.90;;;;;;5084691;28;19920;-71
2022/10/23 06:53:42;;;;;;;;;;;8.80;99.90;;;;;;5086624;28;20089;-72
2022/10/23 06:56:10;;;;;;;;;;;8.90;99.90;;;;;;5095588;28;20097;-72
2022/10/23 06:58:38;;;;;;;;;;;8.90;99.90;;;;;;5104897;28;19927;-72
2022/10/23 07:01:05;;;;;;;;;;;9.00;99.90;;;;;;5104268;28;19926;-72
2022/10/23 07:03:33;;;;;;;;;;;9.00;99.90;;;;;;5104970;28;20089;-72
2022/10/23 07:06:00;;;;;;;;;;;9.00;99.90;;;;;;5104352;28;20262;-71
2022/10/23 07:08:26;;;;;;;;;;;9.10;99.90;;;;;;5104481;28;20166;-71
2022/10/23 07:10:53;;;;;;;;;;;9.10;99.90;;;;;;5104473;28;19920;-72
2022/10/23 07:13:23;;;;;;;;;;;9.20;99.90;;;;;;5104382;28;19987;-72
2022/10/23 07:15:50;;;;;;;;;;;9.20;99.90;;;;;;5083098;28;19938;-69
2022/10/23 07:18:18;;;;;;;;;;;9.20;99.90;;;;;;5083729;28;19920;-69
2022/10/23 07:20:47;;;;;;;;;;;9.30;99.90;;;;;;5084075;28;19967;-69
2022/10/23 07:23:15;;;;;;;;;;;9.30;99.90;;;;;;5084299;28;19921;-69
2022/10/23 07:25:41;;;;;;;;;;;9.40;99.90;;;;;;5083768;28;19959;-70
2022/10/23 07:28:08;;;;;;;;;;;9.50;99.90;;;;;;5083856;28;20252;-70
2022/10/23 07:30:36;;;;;;;;;;;9.50;99.90;;;;;;5083950;28;19979;-69
2022/10/23 07:33:02;;;;;;;;;;;9.60;99.90;;;;;;5083728;28;19921;-69
2022/10/23 07:35:29;;;;;;;;;;;9.70;99.90;;;;;;5083323;28;19920;-68
2022/10/23 07:37:56;;;;;;;;;;;9.70;99.90;;;;;;5083931;28;19920;-69
2022/10/23 07:40:23;;;;;;;;;;;9.90;99.90;;;;;;5083883;28;20263;-69
2022/10/23 07:42:49;;;;;;;;;;;10.00;99.90;;;;;;5083320;28;19963;-69
2022/10/23 07:45:16;;;;;;;;;;;10.10;99.90;;;;;;5083737;28;20195;-69
2022/10/23 07:47:49;;;;;;;;;;;10.20;99.90;;;;;;5083668;28;19927;-69
2022/10/23 07:50:16;;;;;;;;;;;10.20;99.90;;;;;;5083585;28;19928;-69
2022/10/23 07:52:42;;;;;;;;;;;10.30;99.90;;;;;;5084885;28;19920;-69
2022/10/23 07:55:09;;;;;;;;;;;10.40;99.90;;;;;;5091743;28;19924;-69
2022/10/23 07:57:37;;;;;;;;;;;10.40;99.90;;;;;;5098876;28;19998;-69
2022/10/23 08:00:05;;;;;;;;;;;10.50;99.90;;;;;;5103719;28;19920;-69
2022/10/23 08:02:31;;;;;;;;;;;10.60;99.90;;;;;;5103491;28;20120;-69
2022/10/23 08:04:59;;;;;;;;;;;10.60;99.90;;;;;;5103130;28;20275;-70
2022/10/23 08:07:26;;;;;;;;;;;10.70;99.90;;;;;;5103634;28;19927;-71
2022/10/23 08:09:52;;;;;;;;;;;10.80;99.90;;;;;;5101786;28;19984;-68
2022/10/23 08:12:19;;;;;;;;;;;10.80;99.90;;;;;;5102985;28;19926;-68
2022/10/23 08:14:46;;;;;;;;;;;11.00;99.90;;;;;;5102440;28;19983;-68
2022/10/23 08:17:12;;;;;;;;;;;11.10;99.90;;;;;;5102164;28;19987;-68
2022/10/23 08:19:39;;;;;;;;;;;11.20;99.90;;;;;;5102566;28;19987;-68
2022/10/23 08:22:08;;;;;;;;;;;11.30;99.90;;;;;;5103933;28;19987;-69
2022/10/23 08:24:34;;;;;;;;;;;11.40;99.90;;;;;;5092681;28;19921;-68
2022/10/23 08:27:01;;;;;;;;;;;11.50;99.90;;;;;;5082473;28;19921;-69
2022/10/23 08:29:28;;;;;;;;;;;11.60;99.90;;;;;;5090286;28;19926;-69
2022/10/23 08:31:56;;;;;;;;;;;11.60;99.90;;;;;;5102108;28;19996;-69
2022/10/23 08:34:23;;;;;;;;;;;11.60;99.90;;;;;;5083034;28;19921;-69
2022/10/23 08:36:49;;;;;;;;;;;11.70;99.90;;;;;;5083074;28;19983;-68
2022/10/23 08:39:17;;;;;;;;;;;11.80;99.90;;;;;;5095795;28;19927;-69
2022/10/23 08:41:48;;;;;;;;;;;11.90;99.90;;;;;;5087802;28;20199;-69
2022/10/23 08:44:18;;;;;;;;;;;12.10;99.90;;;;;;5083419;28;19920;-72
2022/10/23 08:46:46;;;;;;;;;;;12.20;99.90;;;;;;5082864;28;20154;-72
2022/10/23 08:49:27;;;;;;;;;;;12.30;99.90;;;;;;5083332;28;20115;-71
2022/10/23 08:51:55;;;;;;;;;;;12.40;99.90;;;;;;5082867;28;20226;-71
2022/10/23 08:54:26;;;;;;;;;;;12.50;99.90;;;;;;5083019;28;20107;-71
2022/10/23 08:56:55;;;;;;;;;;;12.60;99.90;;;;;;5083062;28;19924;-71
2022/10/23 08:59:26;;;;;;;;;;;12.80;99.90;;;;;;5082978;28;19921;-74
2022/10/23 09:01:56;;;;;;;;;;;12.80;99.90;;;;;;5083257;28;19920;-73
2022/10/23 09:04:22;;;;;;;;;;;12.90;99.90;;;;;;5082932;28;19920;-71
2022/10/23 09:06:54;;;;;;;;;;;13.00;99.90;;;;;;5082755;28;19983;-71
2022/10/23 09:09:30;;;;;;;;;;;13.10;99.90;;;;;;5082450;28;19962;-71
2022/10/23 09:11:59;;;;;;;;;;;13.10;99.90;;;;;;5082853;28;19922;-72
2022/10/23 09:14:34;;;;;;;;;;;13.20;99.90;;;;;;5082787;28;19992;-71
2022/10/23 09:17:09;;;;;;;;;;;13.20;99.90;;;;;;5082518;28;19927;-72
2022/10/23 09:19:36;;;;;;;;;;;13.30;99.90;;;;;;5081995;28;19920;-71
2022/10/23 09:22:02;;;;;;;;;;;13.30;99.90;;;;;;5101731;28;19956;-71
2022/10/23 09:24:32;;;;;;;;;;;13.30;99.90;;;;;;5106966;28;19983;-69
2022/10/23 09:26:59;;;;;;;;;;;13.40;99.90;;;;;;5106732;28;19920;-69
2022/10/23 09:29:27;;;;;;;;;;;13.50;99.90;;;;;;5106485;28;19988;-69
2022/10/23 09:31:55;;;;;;;;;;;13.60;99.90;;;;;;5088495;28;19987;-69
2022/10/23 09:34:23;;;;;;;;;;;13.70;99.90;;;;;;5089914;28;19932;-69
2022/10/23 09:36:50;;;;;;;;;;;13.80;99.90;;;;;;5106319;28;19920;-69
2022/10/23 09:39:22;;;;;;;;;;;13.80;99.90;;;;;;5106515;28;19920;-69
2022/10/23 09:41:49;;;;;;;;;;;13.90;99.90;;;;;;5106466;28;19965;-69
2022/10/23 09:44:18;;;;;;;;;;;14.10;99.90;;;;;;5106233;28;19942;-69
2022/10/23 09:46:45;;;;;;;;;;;14.10;99.90;;;;;;5105791;28;20208;-69
2022/10/23 09:49:16;;;;;;;;;;;14.20;99.90;;;;;;5096154;28;19920;-69
2022/10/23 09:51:52;;;;;;;;;;;14.20;99.90;;;;;;5086593;28;20203;-69
2022/10/23 09:54:22;;;;;;;;;;;14.30;99.90;;;;;;5091071;28;20226;-69
2022/10/23 09:56:51;;;;;;;;;;;14.30;99.90;;;;;;5097211;28;19920;-69
2022/10/23 09:59:22;;;;;;;;;;;14.30;99.90;;;;;;5105696;28;19935;-69
2022/10/23 10:01:49;;;;;;;;;;;14.40;99.90;;;;;;5106192;28;19926;-69
2022/10/23 10:04:16;;;;;;;;;;;14.50;99.90;;;;;;5104841;28;20212;-69
2022/10/23 10:06:43;;;;;;;;;;;14.50;99.90;;;;;;5098926;28;19920;-69
2022/10/23 10:09:12;;;;;;;;;;;14.60;99.90;;;;;;5085373;28;19924;-69
2022/10/23 10:11:41;;;;;;;;;;;14.70;99.90;;;;;;5085198;28;19958;-69
2022/10/23 10:14:22;;;;;;;;;;;14.80;99.90;;;;;;5085088;28;20205;-69
2022/10/23 10:16:51;;;;;;;;;;;14.90;99.90;;;;;;5094130;28;19920;-69
2022/10/23 10:19:28;;;;;;;;;;;15.00;99.90;;;;;;5105520;28;19920;-69
2022/10/23 10:22:03;;;;;;;;;;;15.20;99.90;;;;;;5105271;28;19982;-69
2022/10/23 10:24:32;;;;;;;;;;;15.30;99.90;;;;;;5105219;28;19927;-69
2022/10/23 10:27:01;;;;;;;;;;;15.50;99.90;;;;;;5105364;28;19927;-69
2022/10/23 10:29:44;;;;;;;;;;;15.70;99.90;;;;;;5105231;28;20239;-69
2022/10/23 10:32:16;;;;;;;;;;;15.90;99.90;;;;;;5091922;28;19921;-69
2022/10/23 10:34:47;;;;;;;;;;;16.10;99.90;;;;;;5085089;28;19987;-69
2022/10/23 10:37:19;;;;;;;;;;;16.30;99.90;;;;;;5085095;28;19921;-69
2022/10/23 10:39:48;;;;;;;;;;;16.50;99.90;;;;;;5085037;28;19942;-69
2022/10/23 10:42:27;;;;;;;;;;;16.60;99.90;;;;;;5084890;28;19920;-69
2022/10/23 10:45:04;;;;;;;;;;;16.80;99.90;;;;;;5084656;28;19920;-69
2022/10/23 10:47:33;;;;;;;;;;;17.00;99.90;;;;;;5085049;28;19920;-69
2022/10/23 10:50:06;;;;;;;;;;;17.20;99.90;;;;;;5084779;28;19942;-69
2022/10/23 10:52:34;;;;;;;;;;;17.30;99.90;;;;;;5085829;28;19920;-69
2022/10/23 10:55:05;;;;;;;;;;;17.40;99.90;;;;;;5093373;28;19926;-69
2022/10/23 10:57:32;;;;;;;;;;;17.60;99.90;;;;;;5098916;28;19934;-69
2022/10/23 11:00:02;;;;;;;;;;;17.60;99.90;;;;;;5104230;28;19942;-69
2022/10/23 11:02:31;;;;;;;;;;;17.70;99.90;;;;;;5104886;28;19963;-69
2022/10/23 11:05:03;;;;;;;;;;;17.80;99.90;;;;;;5104391;28;19928;-69
2022/10/23 11:07:33;;;;;;;;;;;17.90;99.90;;;;;;5104685;28;19955;-69
2022/10/23 11:10:03;;;;;;;;;;;18.00;99.90;;;;;;5104295;28;19920;-69
2022/10/23 11:12:30;;;;;;;;;;;18.10;99.90;;;;;;5099586;28;20017;-69
2022/10/23 11:14:56;;;;;;;;;;;18.10;99.90;;;;;;5084022;28;19927;-69
2022/10/23 11:17:26;;;;;;;;;;;18.20;99.90;;;;;;5084080;28;19920;-69
2022/10/23 11:19:57;;;;;;;;;;;18.20;99.90;;;;;;5084141;28;19920;-69
2022/10/23 11:22:26;;;;;;;;;;;18.20;99.90;;;;;;5083979;28;19920;-69
2022/10/23 11:25:08;;;;;;;;;;;18.20;99.90;;;;;;5083828;28;19920;-69
2022/10/23 11:27:45;;;;;;;;;;;18.20;99.90;;;;;;5099650;28;19936;-69
2022/10/23 11:30:15;;;;;;;;;;;18.30;99.90;;;;;;5104193;28;20204;-69
2022/10/23 11:33:08;;;;;;;;;;;18.30;99.90;;;;;;5087895;28;20200;-69
2022/10/23 11:35:42;;;;;;;;;;;18.40;99.90;;;;;;5083501;28;19928;-69
2022/10/23 11:38:15;;;;;;;;;;;18.40;99.90;;;;;;5084173;28;19984;-69
2022/10/23 11:40:44;;;;;;;;;;;18.60;99.90;;;;;;5090063;28;19926;-69
2022/10/23 11:43:11;;;;;;;;;;;18.70;99.90;;;;;;5104219;28;19920;-69
2022/10/23 11:45:38;;;;;;;;;;;18.80;99.90;;;;;;5102944;28;19926;-69
2022/10/23 11:48:19;;;;;;;;;;;18.90;99.90;;;;;;5104052;28;19920;-69
2022/10/23 11:50:50;;;;;;;;;;;19.00;99.90;;;;;;5084032;28;19921;-69
2022/10/23 11:53:24;;;;;;;;;;;19.20;99.90;;;;;;5085497;28;19927;-69
2022/10/23 11:56:02;;;;;;;;;;;19.40;99.90;;;;;;5093355;28;19927;-69
2022/10/23 11:58:40;;;;;;;;;;;19.60;99.90;;;;;;5083519;28;19920;-69
2022/10/23 12:01:19;;;;;;;;;;;19.70;99.90;;;;;;5083651;28;19988;-69
2022/10/23 12:03:52;;;;;;;;;;;19.80;99.90;;;;;;5083412;28;21722;-69
2022/10/23 12:06:21;;;;;;;;;;;19.80;99.90;;;;;;5083939;28;20224;-69
2022/10/23 12:08:51;;;;;;;;;;;19.80;99.90;;;;;;5083089;28;19966;-69
2022/10/23 12:11:28;;;;;;;;;;;19.70;99.90;;;;;;5083368;28;19920;-69
2022/10/23 12:13:54;;;;;;;;;;;19.50;99.90;;;;;;5083473;28;19920;-69
2022/10/23 12:16:21;;;;;;;;;;;19.40;99.90;;;;;;5083216;28;20108;-69
2022/10/23 12:18:50;;;;;;;;;;;19.30;99.90;;;;;;5083128;28;19920;-69
2022/10/23 12:21:19;;;;;;;;;;;19.10;99.90;;;;;;5096146;28;19927;-69
2022/10/23 12:23:54;;;;;;;;;;;19.00;99.90;;;;;;5092267;28;19927;-69
2022/10/23 12:26:26;;;;;;;;;;;19.00;99.90;;;;;;5082651;28;20207;-69
2022/10/23 12:28:57;;;;;;;;;;;18.90;99.90;;;;;;5083158;28;19920;-69
2022/10/23 12:31:29;;;;;;;;;;;18.90;99.90;;;;;;5082858;28;19935;-69
2022/10/23 12:34:01;;;;;;;;;;;18.90;99.90;;;;;;5086348;28;19978;-69
2022/10/23 12:36:45;;;;;;;;;;;18.90;99.90;;;;;;5102856;28;19920;-78
2022/10/23 12:39:28;;;;;;;;;;;19.00;99.90;;;;;;5102777;28;19927;-67
2022/10/23 12:41:55;;;;;;;;;;;19.00;99.90;;;;;;5082991;28;19952;-67
2022/10/23 12:44:23;;;;;;;;;;;19.00;99.90;;;;;;5083207;28;19979;-68
2022/10/23 12:46:50;;;;;;;;;;;19.10;99.90;;;;;;5082705;28;19952;-68
2022/10/23 12:49:19;;;;;;;;;;;19.10;99.90;;;;;;5082652;28;20274;-68
2022/10/23 12:51:53;;;;;;;;;;;19.00;99.90;;;;;;5083171;28;19991;-68
2022/10/23 12:54:21;;;;;;;;;;;19.00;99.90;;;;;;5082548;28;20135;-68
2022/10/23 12:56:48;;;;;;;;;;;19.00;99.90;;;;;;5085852;28;20123;-67
2022/10/23 12:59:16;;;;;;;;;;;19.00;99.90;;;;;;5086753;28;19921;-67
2022/10/23 13:01:42;;;;;;;;;;;18.90;99.90;;;;;;5086876;28;19920;-67
2022/10/23 13:04:13;;;;;;;;;;;19.00;99.90;;;;;;5098609;28;20247;-68
2022/10/23 13:06:41;;;;;;;;;;;18.90;99.90;;;;;;5086371;28;20276;-68
2022/10/23 13:09:15;;;;;;;;;;;18.80;99.90;;;;;;5087130;28;19984;-67
2022/10/23 13:11:42;;;;;;;;;;;18.70;99.90;;;;;;5086627;28;20123;-68
2022/10/23 13:14:11;;;;;;;;;;;18.60;99.90;;;;;;5086442;28;19988;-67
2022/10/23 13:16:38;;;;;;;;;;;18.60;99.90;;;;;;5086442;28;19920;-67
2022/10/23 13:19:05;;;;;;;;;;;18.60;99.90;;;;;;5086744;28;19967;-67
2022/10/23 13:21:32;;;;;;;;;;;18.50;99.90;;;;;;5086690;28;19983;-68
2022/10/23 13:24:00;;;;;;;;;;;18.50;99.90;;;;;;5086256;28;19924;-67
2022/10/23 13:26:31;;;;;;;;;;;18.50;99.90;;;;;;5085774;28;19927;-67
2022/10/23 13:28:58;;;;;;;;;;;18.40;99.90;;;;;;5086576;28;19920;-68
2022/10/23 13:31:26;;;;;;;;;;;18.40;99.90;;;;;;5086174;28;19962;-67
2022/10/23 13:34:04;;;;;;;;;;;18.40;99.90;;;;;;5085955;28;20204;-67
2022/10/23 13:36:34;;;;;;;;;;;18.40;99.90;;;;;;5085879;28;20124;-67
2022/10/23 13:39:03;;;;;;;;;;;18.40;99.90;;;;;;5086313;28;19920;-67
2022/10/23 13:41:35;;;;;;;;;;;18.30;99.90;;;;;;5086026;28;19927;-67
2022/10/23 13:44:01;;;;;;;;;;;18.30;99.90;;;;;;5086055;28;19958;-68
2022/10/23 13:46:28;;;;;;;;;;;18.30;99.90;;;;;;5085826;28;19952;-66
2022/10/23 13:48:56;;;;;;;;;;;18.30;99.90;;;;;;5086292;28;19970;-68
2022/10/23 13:51:28;;;;;;;;;;;18.30;99.90;;;;;;5086125;28;19920;-68
2022/10/23 13:53:55;;;;;;;;;;;18.30;99.90;;;;;;5085369;28;20192;-68
2022/10/23 13:56:24;;;;;;;;;;;18.50;99.90;;;;;;5085618;28;20212;-67
2022/10/23 13:58:50;;;;;;;;;;;18.70;99.90;;;;;;5085835;28;19921;-68
2022/10/23 14:01:20;;;;;;;;;;;18.90;99.90;;;;;;5085802;28;20283;-68
2022/10/23 14:03:47;;;;;;;;;;;19.10;99.90;;;;;;5085639;28;19958;-68
2022/10/23 14:06:14;;;;;;;;;;;19.30;99.90;;;;;;5085709;28;19943;-68
2022/10/23 14:08:40;;;;;;;;;;;19.30;99.90;;;;;;5084745;28;19987;-67
2022/10/23 14:11:07;;;;;;;;;;;19.40;99.90;;;;;;5085598;28;19959;-68
2022/10/23 14:13:35;;;;;;;;;;;19.50;99.90;;;;;;5085728;28;19995;-68
2022/10/23 14:16:01;;;;;;;;;;;19.50;99.90;;;;;;5085455;28;19958;-69
2022/10/23 14:18:28;;;;;;;;;;;19.70;99.90;;;;;;5085825;28;19987;-68
2022/10/23 14:20:55;;;;;;;;;;;19.70;99.90;;;;;;5085446;28;19928;-68
2022/10/23 14:23:22;;;;;;;;;;;19.90;99.90;;;;;;5085566;28;19926;-68
2022/10/23 14:25:49;;;;;;;;;;;20.00;99.90;;;;;;5085247;28;19927;-68
2022/10/23 14:28:16;;;;;;;;;;;20.00;99.90;;;;;;5083931;28;20208;-67
2022/10/23 14:30:44;;;;;;;;;;;20.20;99.90;;;;;;5083429;28;19983;-68